Terminal Aerodrome Forecast
Issued by NWS

Home | Current Version | Previous Version | Text Only | Print | Product List | Glossary On
Versions: 1 2 3 4 5 6 7 8 9 10 11 12 13 14 15 16 17 18 19 20 21 22 23 24 25 26 27
000
FTUS41 KCTP 261736
TAFUNV
TAF
KUNV 261736Z 2618/2718 VRB04KT P6SM SCT035
     FM271000 00000KT 1SM BR BKN005
     FM271100 00000KT 1/2SM FG OVC002
     FM271300 VRB02KT 4SM BR SCT005
     FM271400 27004KT P6SM BKN035=

USA.gov is the U.S. government's official web portal to all federal, state and local government web resources and services.